Time;durP1;ratioP1;P1;durP2;ratioP2;P2;SDS_P1;SDS_P2;PMS_P1;PMS_P2;Temp;Humidity;BMP_temperature;BMP_pressure;BME280_temperature;BME280_humidity;BME280_pressure;Samples;Min_cycle;Max_cycle;Signal;HPM_P1;HPM_P2
2023/06/07 00:00:41;;;;;;;8.90;2.28;;;;;;;;;;5178220;22;20254;-86
2023/06/07 00:03:01;;;;;;;2.50;2.30;;;;;;;;;;5200782;22;20027;-86
2023/06/07 00:05:22;;;;;;;7.40;2.65;;;;;;;;;;5201515;22;20038;-85
2023/06/07 00:07:42;;;;;;;23.65;3.38;;;;;;;;;;5202100;22;20023;-86
2023/06/07 00:10:03;;;;;;;134.75;8.55;;;;;;;;;;5201801;22;20046;-86
2023/06/07 00:12:23;;;;;;;47.28;4.47;;;;;;;;;;5201942;22;20383;-86
2023/06/07 00:14:44;;;;;;;41.70;4.30;;;;;;;;;;5201968;22;20364;-86
2023/06/07 00:17:04;;;;;;;107.60;5.57;;;;;;;;;;5178949;22;20211;-85
2023/06/07 00:19:29;;;;;;;66.00;4.53;;;;;;;;;;5201872;22;20027;-86
2023/06/07 00:21:50;;;;;;;43.13;4.90;;;;;;;;;;5202057;22;20075;-85
2023/06/07 00:24:10;;;;;;;13.52;4.63;;;;;;;;;;5201842;22;20206;-86
2023/06/07 00:26:31;;;;;;;12.88;3.53;;;;;;;;;;5201683;22;20057;-86
2023/06/07 00:28:52;;;;;;;10.07;4.35;;;;;;;;;;5179181;22;20356;-86
2023/06/07 00:31:12;;;;;;;38.90;4.45;;;;;;;;;;5201897;22;20030;-86
2023/06/07 00:33:32;;;;;;;43.72;3.83;;;;;;;;;;5201653;22;20022;-86
2023/06/07 00:35:52;;;;;;;37.65;4.90;;;;;;;;;;5201875;22;20206;-86
2023/06/07 00:38:12;;;;;;;22.58;4.20;;;;;;;;;;5201829;22;20026;-86
2023/06/07 00:40:32;;;;;;;20.75;3.60;;;;;;;;;;5178893;22;20023;-86
2023/06/07 00:42:52;;;;;;;18.70;3.47;;;;;;;;;;5201789;22;20050;-86
2023/06/07 00:45:12;;;;;;;14.68;3.90;;;;;;;;;;5210353;22;20079;-86
2023/06/07 00:47:33;;;;;;;32.28;4.80;;;;;;;;;;5178867;22;20022;-86
2023/06/07 00:49:54;;;;;;;21.15;4.15;;;;;;;;;;5201718;22;20345;-86
2023/06/07 00:52:14;;;;;;;18.10;3.72;;;;;;;;;;5201858;22;20023;-86
2023/06/07 00:54:35;;;;;;;5.25;3.03;;;;;;;;;;5201713;22;20066;-86
2023/06/07 00:56:55;;;;;;;15.48;3.95;;;;;;;;;;5201473;22;20046;-86
2023/06/07 00:59:19;;;;;;;21.42;4.18;;;;;;;;;;5179135;22;20070;-86
2023/06/07 01:01:41;;;;;;;46.78;6.18;;;;;;;;;;5201765;22;20022;-86
2023/06/07 01:04:01;;;;;;;13.50;4.47;;;;;;;;;;5201593;22;20211;-86
2023/06/07 01:06:22;;;;;;;4.28;3.63;;;;;;;;;;5201723;22;20057;-86
2023/06/07 01:08:43;;;;;;;3.10;2.92;;;;;;;;;;5201895;22;20022;-86
2023/06/07 01:11:03;;;;;;;4.82;2.95;;;;;;;;;;5178782;22;20026;-86
2023/06/07 01:13:23;;;;;;;7.63;3.05;;;;;;;;;;5201808;22;20238;-86
2023/06/07 01:15:44;;;;;;;5.07;2.75;;;;;;;;;;5201780;22;20025;-86
2023/06/07 01:18:05;;;;;;;5.10;2.83;;;;;;;;;;5178706;22;20031;-86
2023/06/07 01:20:26;;;;;;;6.90;3.15;;;;;;;;;;5201572;22;20034;-86
2023/06/07 01:22:48;;;;;;;15.23;3.53;;;;;;;;;;5179081;22;20059;-86
2023/06/07 01:25:09;;;;;;;19.17;3.93;;;;;;;;;;5178905;22;20094;-86
2023/06/07 01:27:30;;;;;;;77.70;5.25;;;;;;;;;;5178716;22;20074;-86
2023/06/07 01:29:51;;;;;;;44.63;4.88;;;;;;;;;;5201667;22;20023;-86
2023/06/07 01:32:12;;;;;;;64.45;4.07;;;;;;;;;;5179187;22;20091;-86
2023/06/07 01:34:33;;;;;;;10.98;2.88;;;;;;;;;;5201412;22;20433;-86
2023/06/07 01:36:55;;;;;;;2.60;2.40;;;;;;;;;;5201453;22;20022;-86
2023/06/07 01:39:18;;;;;;;19.52;3.28;;;;;;;;;;5178987;22;20251;-86
2023/06/07 01:41:39;;;;;;;3.10;2.90;;;;;;;;;;5201587;22;20023;-86
2023/06/07 01:44:00;;;;;;;3.03;2.90;;;;;;;;;;5178825;22;20026;-86
2023/06/07 01:46:20;;;;;;;14.85;3.47;;;;;;;;;;5210200;22;20057;-86
2023/06/07 01:48:41;;;;;;;13.45;3.17;;;;;;;;;;5201643;22;20069;-86
2023/06/07 01:51:01;;;;;;;15.90;3.28;;;;;;;;;;5201761;22;20065;-86
2023/06/07 01:53:21;;;;;;;127.60;7.68;;;;;;;;;;5201608;22;20061;-86
2023/06/07 01:55:42;;;;;;;3.30;3.17;;;;;;;;;;5201559;22;20027;-86
2023/06/07 01:58:05;;;;;;;44.53;4.85;;;;;;;;;;5178490;22;20227;-86
2023/06/07 02:00:27;;;;;;;28.13;4.60;;;;;;;;;;5178776;22;20216;-86
2023/06/07 02:02:48;;;;;;;;;;;;;;;;;;5179410;22;20027;-86
2023/06/07 02:05:12;;;;;;;5.25;3.78;;;;;;;;;;5201434;22;19917;-86
2023/06/07 02:07:36;;;;;;;11.95;3.95;;;;;;;;;;5201441;22;20246;-86
2023/06/07 02:09:57;;;;;;;6.03;3.58;;;;;;;;;;5178846;22;20074;-86
2023/06/07 02:12:18;;;;;;;32.28;5.03;;;;;;;;;;5201490;22;20046;-86
2023/06/07 02:14:38;;;;;;;5.20;4.63;;;;;;;;;;5201273;22;20238;-86
2023/06/07 02:16:59;;;;;;;5.20;4.15;;;;;;;;;;5178627;22;20047;-86
2023/06/07 02:19:19;;;;;;;4.82;4.00;;;;;;;;;;5178713;22;20031;-86
2023/06/07 02:21:40;;;;;;;4.85;3.50;;;;;;;;;;5201280;22;20031;-86
2023/06/07 02:24:00;;;;;;;5.80;4.10;;;;;;;;;;5178632;22;20270;-86
2023/06/07 02:26:23;;;;;;;11.40;3.38;;;;;;;;;;5201477;22;20210;-86
2023/06/07 02:28:43;;;;;;;25.52;4.57;;;;;;;;;;5200760;22;20023;-86
2023/06/07 02:31:03;;;;;;;4.15;3.88;;;;;;;;;;5201168;22;20333;-86
2023/06/07 02:33:24;;;;;;;4.05;3.78;;;;;;;;;;5178639;22;20058;-86
2023/06/07 02:35:44;;;;;;;36.00;5.30;;;;;;;;;;5201238;22;20026;-86
2023/06/07 02:38:06;;;;;;;5.38;4.85;;;;;;;;;;5178125;22;20062;-86
2023/06/07 02:40:26;;;;;;;3.42;3.10;;;;;;;;;;5200980;22;20030;-86
2023/06/07 02:42:47;;;;;;;17.58;4.78;;;;;;;;;;5178404;22;20051;-86
2023/06/07 02:45:08;;;;;;;4.40;3.45;;;;;;;;;;5200982;22;20022;-86
2023/06/07 02:47:28;;;;;;;2.80;2.47;;;;;;;;;;5201072;22;20023;-86
2023/06/07 02:49:49;;;;;;;3.40;3.10;;;;;;;;;;5178680;22;20062;-86
2023/06/07 02:52:10;;;;;;;4.30;2.65;;;;;;;;;;5201142;22;20022;-86
2023/06/07 02:54:34;;;;;;;3.25;3.10;;;;;;;;;;5186904;22;20088;-86
2023/06/07 02:56:55;;;;;;;2.85;2.75;;;;;;;;;;5201245;22;20038;-86
2023/06/07 02:59:15;;;;;;;7.10;2.92;;;;;;;;;;5178610;22;20061;-86
2023/06/07 03:01:37;;;;;;;3.65;3.08;;;;;;;;;;5178511;22;20247;-86
2023/06/07 03:03:59;;;;;;;2.75;2.55;;;;;;;;;;5178722;22;20027;-86
2023/06/07 03:06:20;;;;;;;3.90;2.28;;;;;;;;;;5201228;22;20023;-86
2023/06/07 03:08:40;;;;;;;7.50;3.10;;;;;;;;;;5201216;22;20353;-86
2023/06/07 03:11:00;;;;;;;4.45;4.07;;;;;;;;;;5201216;22;20372;-86
2023/06/07 03:13:20;;;;;;;4.15;3.80;;;;;;;;;;5178425;22;20046;-86
2023/06/07 03:15:42;;;;;;;4.30;4.15;;;;;;;;;;5201183;22;20196;-86
2023/06/07 03:18:04;;;;;;;3.63;3.42;;;;;;;;;;5178227;22;20266;-86
2023/06/07 03:20:28;;;;;;;2.90;2.83;;;;;;;;;;5178444;22;20023;-86
2023/06/07 03:22:49;;;;;;;3.15;2.47;;;;;;;;;;5201128;22;20027;-86
2023/06/07 03:25:09;;;;;;;2.88;2.60;;;;;;;;;;5209628;22;20063;-86
2023/06/07 03:27:32;;;;;;;2.85;2.70;;;;;;;;;;5201164;22;20023;-86
2023/06/07 03:29:52;;;;;;;4.75;3.03;;;;;;;;;;5178534;22;20247;-86
2023/06/07 03:32:13;;;;;;;2.75;2.55;;;;;;;;;;5178412;22;20023;-86
2023/06/07 03:34:33;;;;;;;2.78;2.58;;;;;;;;;;5201062;22;20034;-86
2023/06/07 03:36:54;;;;;;;4.57;3.47;;;;;;;;;;5201016;22;20098;-86
2023/06/07 03:39:14;;;;;;;3.63;3.30;;;;;;;;;;5200620;22;20062;-86
2023/06/07 03:41:34;;;;;;;2.90;2.80;;;;;;;;;;5201002;22;20214;-86
2023/06/07 03:43:54;;;;;;;3.33;3.08;;;;;;;;;;5178288;22;20050;-86
2023/06/07 03:46:15;;;;;;;3.20;3.10;;;;;;;;;;5200920;22;20057;-86
2023/06/07 03:48:36;;;;;;;3.63;3.33;;;;;;;;;;5200903;22;20022;-86
2023/06/07 03:50:56;;;;;;;2.75;2.55;;;;;;;;;;5201076;22;20034;-86
2023/06/07 03:53:16;;;;;;;2.83;2.53;;;;;;;;;;5201065;22;20349;-86
2023/06/07 03:55:41;;;;;;;3.78;2.20;;;;;;;;;;5178177;22;20034;-86
2023/06/07 03:58:02;;;;;;;4.82;2.15;;;;;;;;;;5178160;22;20031;-86
2023/06/07 04:00:26;;;;;;;2.53;2.53;;;;;;;;;;5178189;22;20027;-86
2023/06/07 04:02:47;;;;;;;2.72;2.53;;;;;;;;;;5178156;22;20059;-86
2023/06/07 04:05:08;;;;;;;3.03;2.88;;;;;;;;;;5178090;22;20050;-86
2023/06/07 04:07:31;;;;;;;2.78;2.67;;;;;;;;;;5200909;22;20034;-85
2023/06/07 04:09:54;;;;;;;3.22;3.10;;;;;;;;;;5178520;22;20216;-81
2023/06/07 04:12:15;;;;;;;3.60;2.90;;;;;;;;;;5200760;22;20041;-81
2023/06/07 04:14:35;;;;;;;3.53;3.42;;;;;;;;;;5200865;22;20107;-82
2023/06/07 04:16:55;;;;;;;3.78;3.60;;;;;;;;;;5186452;22;20027;-82
2023/06/07 04:19:15;;;;;;;3.92;3.67;;;;;;;;;;5178186;22;20337;-81
2023/06/07 04:21:35;;;;;;;4.35;4.25;;;;;;;;;;5177956;22;20039;-81
2023/06/07 04:23:57;;;;;;;4.57;3.65;;;;;;;;;;5200775;22;20089;-82
2023/06/07 04:26:21;;;;;;;4.32;2.58;;;;;;;;;;5177991;22;20051;-81
2023/06/07 04:28:42;;;;;;;6.38;4.00;;;;;;;;;;5177984;22;20227;-81
2023/06/07 04:31:02;;;;;;;3.85;3.70;;;;;;;;;;5200705;22;20215;-81
2023/06/07 04:33:23;;;;;;;3.38;3.30;;;;;;;;;;5200671;22;20039;-82
2023/06/07 04:35:43;;;;;;;3.10;2.95;;;;;;;;;;5177847;22;20373;-81
2023/06/07 04:38:04;;;;;;;3.83;3.63;;;;;;;;;;5177849;22;20066;-82
2023/06/07 04:40:24;;;;;;;3.33;3.05;;;;;;;;;;5209182;22;20034;-82
2023/06/07 04:42:46;;;;;;;3.60;3.45;;;;;;;;;;5200859;22;20077;-81
2023/06/07 04:45:07;;;;;;;2.97;2.83;;;;;;;;;;5177875;22;20059;-81
2023/06/07 04:47:27;;;;;;;2.95;2.95;;;;;;;;;;5177860;22;20254;-82
2023/06/07 04:49:51;;;;;;;3.72;2.50;;;;;;;;;;5177850;22;20077;-81
2023/06/07 04:52:12;;;;;;;3.80;2.42;;;;;;;;;;5178597;22;20027;-82
2023/06/07 04:54:36;;;;;;;4.20;3.35;;;;;;;;;;5179022;22;20083;-81
2023/06/07 04:56:56;;;;;;;3.30;3.20;;;;;;;;;;5201623;22;20026;-81
2023/06/07 04:59:18;;;;;;;2.90;2.80;;;;;;;;;;5178948;22;20039;-82
2023/06/07 05:01:40;;;;;;;2.28;2.28;;;;;;;;;;5201644;22;20038;-81
2023/06/07 05:04:02;;;;;;;5.57;2.72;;;;;;;;;;5201738;22;20376;-82
2023/06/07 05:06:22;;;;;;;2.83;2.58;;;;;;;;;;5201798;22;20023;-81
2023/06/07 05:08:42;;;;;;;2.58;2.58;;;;;;;;;;5201618;22;20022;-81
2023/06/07 05:11:03;;;;;;;2.38;2.35;;;;;;;;;;5201719;22;20061;-81
2023/06/07 05:13:23;;;;;;;3.03;2.88;;;;;;;;;;5201789;22;20023;-81
2023/06/07 05:15:44;;;;;;;3.35;3.22;;;;;;;;;;5201644;22;20025;-81
2023/06/07 05:18:07;;;;;;;3.33;3.13;;;;;;;;;;5201898;22;20061;-94
2023/06/07 05:20:28;;;;;;;3.03;2.92;;;;;;;;;;5187719;22;20072;-93
2023/06/07 05:22:48;;;;;;;3.42;3.20;;;;;;;;;;5187530;22;20047;-93
2023/06/07 05:25:09;;;;;;;3.42;3.10;;;;;;;;;;5178965;22;20320;-94
2023/06/07 05:27:29;;;;;;;3.30;2.97;;;;;;;;;;5179226;22;20096;-94
2023/06/07 05:29:50;;;;;;;4.47;3.22;;;;;;;;;;5187664;22;20066;-94
2023/06/07 05:32:10;;;;;;;3.10;3.00;;;;;;;;;;5187550;22;20043;-94
2023/06/07 05:34:31;;;;;;;2.75;2.65;;;;;;;;;;5187482;22;20098;-90
2023/06/07 05:36:51;;;;;;;3.47;3.33;;;;;;;;;;5201587;22;20065;-90
2023/06/07 05:39:11;;;;;;;2.47;2.47;;;;;;;;;;5210028;22;20053;-90
2023/06/07 05:41:31;;;;;;;2.95;2.85;;;;;;;;;;5179136;22;20039;-90
2023/06/07 05:43:51;;;;;;;3.25;3.25;;;;;;;;;;5178842;22;20043;-90
2023/06/07 05:46:12;;;;;;;2.83;2.63;;;;;;;;;;5209954;22;20064;-90
2023/06/07 05:48:32;;;;;;;2.30;2.30;;;;;;;;;;5178930;22;20099;-90
2023/06/07 05:50:53;;;;;;;2.35;2.35;;;;;;;;;;5201672;22;20349;-90
2023/06/07 05:53:13;;;;;;;2.53;2.53;;;;;;;;;;5178622;22;20023;-90
2023/06/07 05:55:33;;;;;;;2.22;2.22;;;;;;;;;;5201472;22;20068;-90
2023/06/07 05:57:54;;;;;;;1.98;1.98;;;;;;;;;;5178767;22;20027;-90
2023/06/07 06:00:15;;;;;;;2.35;1.77;;;;;;;;;;5187146;22;20114;-90
2023/06/07 06:02:37;;;;;;;1.60;1.60;;;;;;;;;;5177904;22;20027;-91
2023/06/07 06:04:58;;;;;;;1.80;1.80;;;;;;;;;;5209686;22;20023;-90
2023/06/07 06:07:19;;;;;;;1.70;1.70;;;;;;;;;;5178558;22;20235;-91
2023/06/07 06:09:41;;;;;;;1.50;1.50;;;;;;;;;;5178344;22;20341;-91
2023/06/07 06:12:01;;;;;;;1.60;1.60;;;;;;;;;;5178569;22;20031;-91
2023/06/07 06:14:21;;;;;;;1.60;1.60;;;;;;;;;;5187199;22;20082;-91
2023/06/07 06:16:41;;;;;;;1.70;1.70;;;;;;;;;;5187183;22;20023;-91
2023/06/07 06:19:02;;;;;;;1.55;1.55;;;;;;;;;;5187008;22;20054;-91
2023/06/07 06:21:22;;;;;;;2.53;1.48;;;;;;;;;;5178702;22;20051;-90
2023/06/07 06:23:42;;;;;;;1.50;1.50;;;;;;;;;;5201261;22;20110;-91
2023/06/07 06:26:02;;;;;;;1.40;1.30;;;;;;;;;;5187034;22;20038;-91
2023/06/07 06:28:23;;;;;;;2.05;1.20;;;;;;;;;;5178825;22;20062;-91
2023/06/07 06:30:43;;;;;;;1.75;1.65;;;;;;;;;;5187112;22;20080;-90
2023/06/07 06:33:06;;;;;;;1.13;1.13;;;;;;;;;;5209783;22;20030;-90
2023/06/07 06:35:28;;;;;;;2.83;1.30;;;;;;;;;;5187254;22;20073;-90
2023/06/07 06:37:48;;;;;;;1.33;1.27;;;;;;;;;;5186967;22;20022;-90
2023/06/07 06:40:09;;;;;;;1.20;1.20;;;;;;;;;;5178382;22;20215;-90
2023/06/07 06:42:29;;;;;;;1.30;1.30;;;;;;;;;;5201298;22;20382;-90
2023/06/07 06:44:49;;;;;;;1.23;1.23;;;;;;;;;;5178627;22;20241;-90
2023/06/07 06:47:09;;;;;;;1.30;1.30;;;;;;;;;;5209773;22;20057;-90
2023/06/07 06:49:29;;;;;;;1.15;1.15;;;;;;;;;;5209740;22;20093;-90
2023/06/07 06:51:51;;;;;;;1.23;1.23;;;;;;;;;;5201468;22;20026;-90
2023/06/07 06:54:12;;;;;;;1.63;1.63;;;;;;;;;;5178501;22;20437;-90
2023/06/07 06:56:32;;;;;;;2.03;1.40;;;;;;;;;;5186905;22;20035;-90
2023/06/07 06:58:52;;;;;;;1.42;1.35;;;;;;;;;;5210084;22;20034;-91
2023/06/07 07:01:15;;;;;;;2.47;1.25;;;;;;;;;;5178541;22;20031;-90
2023/06/07 07:03:38;;;;;;;1.85;1.40;;;;;;;;;;5178421;22;20226;-90
2023/06/07 07:05:58;;;;;;;1.73;1.63;;;;;;;;;;5201409;22;20022;-94
2023/06/07 07:08:18;;;;;;;1.80;1.65;;;;;;;;;;5179017;22;20627;-94
2023/06/07 07:10:38;;;;;;;1.17;1.17;;;;;;;;;;5178803;22;20081;-95
2023/06/07 07:12:59;;;;;;;1.75;1.20;;;;;;;;;;5187171;22;20023;-95
2023/06/07 07:15:19;;;;;;;1.20;1.20;;;;;;;;;;5178897;22;20250;-95
2023/06/07 07:17:48;;;;;;;1.10;1.10;;;;;;;;;;5186995;22;20381;-94
2023/06/07 07:20:10;;;;;;;1.10;1.10;;;;;;;;;;5178736;22;20258;-95
2023/06/07 07:22:30;;;;;;;1.52;1.10;;;;;;;;;;5187470;22;20022;-95
2023/06/07 07:24:50;;;;;;;1.20;1.20;;;;;;;;;;5187362;22;20067;-94
2023/06/07 07:27:22;;;;;;;1.00;1.00;;;;;;;;;;5186959;22;20023;-95
2023/06/07 07:29:48;;;;;;;1.08;1.08;;;;;;;;;;5187961;22;20300;-95
2023/06/07 07:32:08;;;;;;;1.25;1.10;;;;;;;;;;5201394;22;20038;-95
2023/06/07 07:34:29;;;;;;;1.10;1.10;;;;;;;;;;5178676;22;20023;-95
2023/06/07 07:36:53;;;;;;;1.00;1.00;;;;;;;;;;5209831;22;20050;-95
2023/06/07 07:39:17;;;;;;;1.10;1.10;;;;;;;;;;5178605;22;20022;-95
2023/06/07 07:41:40;;;;;;;1.40;1.00;;;;;;;;;;5187082;22;20060;-94
2023/06/07 07:44:00;;;;;;;0.90;0.90;;;;;;;;;;5187157;22;20023;-94
2023/06/07 07:46:21;;;;;;;4.20;1.00;;;;;;;;;;5178312;22;20027;-94
2023/06/07 07:48:41;;;;;;;1.00;1.00;;;;;;;;;;5178759;22;20066;-95
2023/06/07 07:51:02;;;;;;;0.90;0.90;;;;;;;;;;5187167;22;20031;-95
2023/06/07 07:53:22;;;;;;;0.93;0.93;;;;;;;;;;5209547;22;20263;-94
2023/06/07 07:55:43;;;;;;;1.17;0.98;;;;;;;;;;5209921;22;20062;-95
2023/06/07 07:58:03;;;;;;;0.90;0.90;;;;;;;;;;5178683;22;20098;-95
2023/06/07 08:00:24;;;;;;;1.15;1.00;;;;;;;;;;5178584;22;20034;-96
2023/06/07 08:02:45;;;;;;;0.80;0.80;;;;;;;;;;5178724;22;20031;-95
2023/06/07 08:05:07;;;;;;;1.67;0.90;;;;;;;;;;5187395;22;20077;-95
2023/06/07 08:07:28;;;;;;;0.95;0.95;;;;;;;;;;5179090;22;20050;-94
2023/06/07 08:09:48;;;;;;;0.90;0.90;;;;;;;;;;5209883;22;20061;-95
2023/06/07 08:12:09;;;;;;;1.02;0.80;;;;;;;;;;5188397;22;20354;-95
2023/06/07 08:14:29;;;;;;;2.15;1.00;;;;;;;;;;5187984;22;20218;-96
2023/06/07 08:16:50;;;;;;;0.90;0.90;;;;;;;;;;5188853;22;20031;-95
2023/06/07 08:19:10;;;;;;;1.13;1.13;;;;;;;;;;5192488;22;20023;-96
2023/06/07 08:21:34;;;;;;;0.80;0.80;;;;;;;;;;5187961;22;20026;-91
2023/06/07 08:23:55;;;;;;;0.70;0.70;;;;;;;;;;5186259;22;20211;-91
2023/06/07 08:26:15;;;;;;;0.80;0.80;;;;;;;;;;5178624;22;20072;-91
2023/06/07 08:28:36;;;;;;;0.90;0.90;;;;;;;;;;5210468;22;20075;-91
2023/06/07 08:30:57;;;;;;;0.80;0.80;;;;;;;;;;5187331;22;20023;-91
2023/06/07 08:33:17;;;;;;;0.80;0.80;;;;;;;;;;5201786;22;20034;-91
2023/06/07 08:35:37;;;;;;;0.80;0.80;;;;;;;;;;5202217;22;20022;-91
2023/06/07 08:37:57;;;;;;;0.85;0.80;;;;;;;;;;5187374;22;20043;-91
2023/06/07 08:40:19;;;;;;;0.80;0.80;;;;;;;;;;5179085;22;20058;-90
2023/06/07 08:42:39;;;;;;;0.80;0.80;;;;;;;;;;5179174;22;20027;-91
2023/06/07 08:45:00;;;;;;;0.70;0.70;;;;;;;;;;5179097;22;20042;-91
2023/06/07 08:47:22;;;;;;;0.80;0.80;;;;;;;;;;5187339;22;20240;-90
2023/06/07 08:49:46;;;;;;;0.70;0.70;;;;;;;;;;5179193;22;20050;-90
2023/06/07 08:52:09;;;;;;;0.75;0.75;;;;;;;;;;5187571;22;20249;-91
2023/06/07 08:54:41;;;;;;;0.80;0.80;;;;;;;;;;5210234;22;20334;-90
2023/06/07 08:57:01;;;;;;;1.10;0.80;;;;;;;;;;5187220;22;20031;-90
2023/06/07 08:59:26;;;;;;;0.90;0.90;;;;;;;;;;5179163;22;20223;-90
2023/06/07 09:01:47;;;;;;;0.70;0.70;;;;;;;;;;5187504;22;20059;-91
2023/06/07 09:04:07;;;;;;;1.55;0.70;;;;;;;;;;5187325;22;20035;-91
2023/06/07 09:06:28;;;;;;;1.05;0.80;;;;;;;;;;5187553;22;20023;-90
2023/06/07 09:08:48;;;;;;;0.70;0.70;;;;;;;;;;5179078;22;20022;-90
2023/06/07 09:11:09;;;;;;;0.70;0.70;;;;;;;;;;5178854;22;20023;-90
2023/06/07 09:13:29;;;;;;;2.58;0.70;;;;;;;;;;5178844;22;20266;-90
2023/06/07 09:15:51;;;;;;;0.88;0.80;;;;;;;;;;5179115;22;20023;-91
2023/06/07 09:18:12;;;;;;;0.70;0.70;;;;;;;;;;5187214;22;20051;-91
2023/06/07 09:20:33;;;;;;;1.45;0.70;;;;;;;;;;5210006;22;20110;-91
2023/06/07 09:23:16;;;;;;;0.70;0.70;;;;;;;;;;5187553;22;20442;-90
2023/06/07 09:25:39;;;;;;;0.70;0.70;;;;;;;;;;5179103;22;20022;-90
2023/06/07 09:28:02;;;;;;;0.70;0.70;;;;;;;;;;5179085;22;20023;-90
2023/06/07 09:30:22;;;;;;;;;;;;;;;;;;5179236;22;20058;-89
2023/06/07 09:32:43;;;;;;;0.68;0.68;;;;;;;;;;5178980;22;19942;-89
2023/06/07 09:35:15;;;;;;;0.70;0.70;;;;;;;;;;5210228;22;20211;-89
2023/06/07 09:37:46;;;;;;;1.88;0.70;;;;;;;;;;5178150;22;20023;-89
2023/06/07 09:40:08;;;;;;;0.65;0.65;;;;;;;;;;5177138;22;20090;-89
2023/06/07 09:42:28;;;;;;;1.05;0.70;;;;;;;;;;5179031;22;20031;-89
2023/06/07 09:44:49;;;;;;;1.95;0.70;;;;;;;;;;5179013;22;20058;-90
2023/06/07 09:47:23;;;;;;;1.27;0.63;;;;;;;;;;5201578;22;20219;-89
2023/06/07 09:49:44;;;;;;;0.70;0.70;;;;;;;;;;5209998;22;20027;-89
2023/06/07 09:52:05;;;;;;;0.70;0.70;;;;;;;;;;5179048;22;20142;-90
2023/06/07 09:54:36;;;;;;;0.65;0.65;;;;;;;;;;5187411;22;20065;-89
2023/06/07 09:56:57;;;;;;;0.80;0.80;;;;;;;;;;5178935;22;20046;-89
2023/06/07 09:59:17;;;;;;;2.47;0.70;;;;;;;;;;5178718;22;20234;-89
2023/06/07 10:01:38;;;;;;;0.60;0.60;;;;;;;;;;5201648;22;20030;-89
2023/06/07 10:04:01;;;;;;;1.05;0.70;;;;;;;;;;5179118;22;20267;-90
2023/06/07 10:06:23;;;;;;;0.70;0.70;;;;;;;;;;5201298;22;20022;-89
2023/06/07 10:08:43;;;;;;;0.63;0.63;;;;;;;;;;5178720;22;20039;-89
2023/06/07 10:11:04;;;;;;;0.82;0.70;;;;;;;;;;5201627;22;20027;-89
2023/06/07 10:13:25;;;;;;;0.70;0.70;;;;;;;;;;5201378;22;20214;-89
2023/06/07 10:15:46;;;;;;;0.60;0.60;;;;;;;;;;5187251;22;20342;-89
2023/06/07 10:18:06;;;;;;;0.73;0.70;;;;;;;;;;5178758;22;20386;-90
2023/06/07 10:20:30;;;;;;;0.90;0.90;;;;;;;;;;5201461;22;20026;-89
2023/06/07 10:22:52;;;;;;;0.60;0.60;;;;;;;;;;5154134;22;20059;-89
2023/06/07 10:25:16;;;;;;;0.60;0.60;;;;;;;;;;5187355;22;20062;-89
2023/06/07 10:28:01;;;;;;;0.70;0.70;;;;;;;;;;5201529;22;20085;-89
2023/06/07 10:30:23;;;;;;;0.60;0.60;;;;;;;;;;5178812;22;20046;-89
2023/06/07 10:32:44;;;;;;;0.60;0.60;;;;;;;;;;5178496;22;20042;-89
2023/06/07 10:35:06;;;;;;;0.60;0.60;;;;;;;;;;5201451;22;20057;-89
2023/06/07 10:37:30;;;;;;;0.60;0.60;;;;;;;;;;5201518;22;20285;-89
2023/06/07 10:39:51;;;;;;;0.50;0.50;;;;;;;;;;5201206;22;20042;-88
2023/06/07 10:42:11;;;;;;;1.65;0.60;;;;;;;;;;5209772;22;20073;-89
2023/06/07 10:44:32;;;;;;;0.60;0.60;;;;;;;;;;5178783;22;20074;-89
2023/06/07 10:47:11;;;;;;;0.60;0.60;;;;;;;;;;5201347;22;20023;-89
2023/06/07 10:49:36;;;;;;;0.60;0.60;;;;;;;;;;5186873;22;20087;-89
2023/06/07 10:52:03;;;;;;;2.10;0.60;;;;;;;;;;5186959;22;20255;-89
2023/06/07 10:54:30;;;;;;;0.60;0.60;;;;;;;;;;5177102;22;20120;-89
2023/06/07 10:56:51;;;;;;;0.60;0.60;;;;;;;;;;5201422;22;20026;-89
2023/06/07 10:59:16;;;;;;;0.60;0.60;;;;;;;;;;5201279;22;20263;-89
2023/06/07 11:01:36;;;;;;;1.17;0.60;;;;;;;;;;5178482;22;20027;-89
2023/06/07 11:03:56;;;;;;;0.60;0.60;;;;;;;;;;5187094;22;20027;-89
2023/06/07 11:06:17;;;;;;;0.60;0.60;;;;;;;;;;5187194;22;20378;-89
2023/06/07 11:08:38;;;;;;;1.23;0.60;;;;;;;;;;5178360;22;20032;-89
2023/06/07 11:11:00;;;;;;;0.50;0.50;;;;;;;;;;5187135;22;20338;-89
2023/06/07 11:13:20;;;;;;;0.60;0.60;;;;;;;;;;5178817;22;20023;-89
2023/06/07 11:15:41;;;;;;;0.52;0.52;;;;;;;;;;5178444;22;20027;-89
2023/06/07 11:18:04;;;;;;;0.85;0.50;;;;;;;;;;5178392;22;20023;-89
2023/06/07 11:20:40;;;;;;;0.50;0.50;;;;;;;;;;5178622;22;20063;-89
2023/06/07 11:23:20;;;;;;;0.85;0.50;;;;;;;;;;5178551;22;20330;-89
2023/06/07 11:25:41;;;;;;;0.80;0.52;;;;;;;;;;5201196;22;20337;-89
2023/06/07 11:28:01;;;;;;;0.52;0.52;;;;;;;;;;5178258;22;20027;-89
2023/06/07 11:30:23;;;;;;;0.50;0.50;;;;;;;;;;5186830;22;20078;-89
2023/06/07 11:32:44;;;;;;;0.50;0.50;;;;;;;;;;5209649;22;20026;-89
2023/06/07 11:35:05;;;;;;;0.50;0.50;;;;;;;;;;5186692;22;20031;-89
2023/06/07 11:37:25;;;;;;;0.52;0.52;;;;;;;;;;5186775;22;20031;-89
2023/06/07 11:39:46;;;;;;;0.50;0.50;;;;;;;;;;5201171;22;20022;-90
2023/06/07 11:42:07;;;;;;;0.50;0.50;;;;;;;;;;5186774;22;20051;-80
2023/06/07 11:44:28;;;;;;;0.50;0.50;;;;;;;;;;5209464;22;20030;-79
2023/06/07 11:46:49;;;;;;;0.50;0.50;;;;;;;;;;5201196;22;20022;-79
2023/06/07 11:49:09;;;;;;;0.60;0.60;;;;;;;;;;5186826;22;20207;-79
2023/06/07 11:51:31;;;;;;;0.50;0.50;;;;;;;;;;5178351;22;20026;-79
2023/06/07 11:53:57;;;;;;;0.73;0.50;;;;;;;;;;5201078;22;20074;-79
2023/06/07 11:56:18;;;;;;;0.73;0.50;;;;;;;;;;5178419;22;20070;-79
2023/06/07 11:58:38;;;;;;;4.47;1.17;;;;;;;;;;5200816;22;20034;-79
2023/06/07 12:00:59;;;;;;;0.65;0.65;;;;;;;;;;5177903;22;20023;-79
2023/06/07 12:03:21;;;;;;;0.60;0.60;;;;;;;;;;5200979;22;20341;-79
2023/06/07 12:05:44;;;;;;;1.65;0.60;;;;;;;;;;5178295;22;20370;-79
2023/06/07 12:08:06;;;;;;;0.70;0.70;;;;;;;;;;5186516;22;20032;-79
2023/06/07 12:10:27;;;;;;;1.33;0.60;;;;;;;;;;5200930;22;20242;-79
2023/06/07 12:13:03;;;;;;;0.60;0.60;;;;;;;;;;5209329;22;20053;-79
2023/06/07 12:15:23;;;;;;;0.60;0.60;;;;;;;;;;5200744;22;20073;-79
2023/06/07 12:17:45;;;;;;;0.70;0.70;;;;;;;;;;5200583;22;20356;-79
2023/06/07 12:20:14;;;;;;;0.95;0.70;;;;;;;;;;5209330;22;20353;-79
2023/06/07 12:22:35;;;;;;;0.60;0.60;;;;;;;;;;5201015;22;20057;-78
2023/06/07 12:25:06;;;;;;;1.95;1.25;;;;;;;;;;5178224;22;20031;-80
2023/06/07 12:27:30;;;;;;;1.95;0.63;;;;;;;;;;5200644;22;20296;-80
2023/06/07 12:29:53;;;;;;;1.25;1.23;;;;;;;;;;5200684;22;20034;-81
2023/06/07 12:32:13;;;;;;;2.45;0.68;;;;;;;;;;5178022;22;20369;-81
2023/06/07 12:34:33;;;;;;;0.80;0.80;;;;;;;;;;5200634;22;20031;-81
2023/06/07 12:36:54;;;;;;;0.80;0.80;;;;;;;;;;5186449;22;20027;-81
2023/06/07 12:39:14;;;;;;;1.15;0.88;;;;;;;;;;5200640;22;20038;-81
2023/06/07 12:41:35;;;;;;;0.90;0.90;;;;;;;;;;5200194;22;20023;-81
2023/06/07 12:43:56;;;;;;;0.60;0.60;;;;;;;;;;5177456;22;20084;-81
2023/06/07 12:46:17;;;;;;;1.30;1.15;;;;;;;;;;5200267;22;20030;-81
2023/06/07 12:48:38;;;;;;;0.57;0.57;;;;;;;;;;5177436;22;20349;-81
2023/06/07 12:50:58;;;;;;;0.73;0.60;;;;;;;;;;5200186;22;20050;-81
2023/06/07 12:53:18;;;;;;;0.60;0.60;;;;;;;;;;5200267;22;20337;-81
2023/06/07 12:55:39;;;;;;;0.60;0.60;;;;;;;;;;5177675;22;20284;-81
2023/06/07 12:58:01;;;;;;;0.90;0.90;;;;;;;;;;5177656;22;20381;-81
2023/06/07 13:00:21;;;;;;;0.93;0.93;;;;;;;;;;5200335;22;20035;-81
2023/06/07 13:02:41;;;;;;;1.17;0.70;;;;;;;;;;5177646;22;20030;-81
2023/06/07 13:05:02;;;;;;;0.50;0.50;;;;;;;;;;5208830;22;20324;-81
2023/06/07 13:07:23;;;;;;;1.23;0.50;;;;;;;;;;5200317;22;20030;-80
2023/06/07 13:09:43;;;;;;;1.20;0.50;;;;;;;;;;5200372;22;20083;-81
2023/06/07 13:12:05;;;;;;;0.50;0.50;;;;;;;;;;5200570;22;20294;-80
2023/06/07 13:14:25;;;;;;;4.97;0.50;;;;;;;;;;5201556;22;20057;-80
2023/06/07 13:16:46;;;;;;;1.10;0.52;;;;;;;;;;5210139;22;20341;-81
2023/06/07 13:19:06;;;;;;;0.60;0.60;;;;;;;;;;5201467;22;20027;-80
2023/06/07 13:21:26;;;;;;;0.57;0.50;;;;;;;;;;5201488;22;20086;-80
2023/06/07 13:23:47;;;;;;;0.60;0.60;;;;;;;;;;5201784;22;20069;-80
2023/06/07 13:26:07;;;;;;;0.60;0.60;;;;;;;;;;5201564;22;20234;-80
2023/06/07 13:28:27;;;;;;;1.50;0.60;;;;;;;;;;5178884;22;20224;-80
2023/06/07 13:30:47;;;;;;;0.60;0.60;;;;;;;;;;5201617;22;20026;-81
2023/06/07 13:33:18;;;;;;;0.60;0.60;;;;;;;;;;5201568;22;20049;-83
2023/06/07 13:35:38;;;;;;;0.75;0.65;;;;;;;;;;5187276;22;20088;-84
2023/06/07 13:38:00;;;;;;;3.33;0.95;;;;;;;;;;5201332;22;20046;-84
2023/06/07 13:40:20;;;;;;;2.40;0.70;;;;;;;;;;5178730;22;20027;-84
2023/06/07 13:42:40;;;;;;;1.58;0.85;;;;;;;;;;5178771;22;20042;-83
2023/06/07 13:45:01;;;;;;;2.47;0.90;;;;;;;;;;5201445;22;20034;-83
2023/06/07 13:47:22;;;;;;;3.90;0.90;;;;;;;;;;5178792;22;20354;-84
2023/06/07 13:49:43;;;;;;;0.90;0.80;;;;;;;;;;5201533;22;20357;-84
2023/06/07 13:52:03;;;;;;;0.70;0.70;;;;;;;;;;5187332;22;20354;-85
2023/06/07 13:54:24;;;;;;;1.08;0.80;;;;;;;;;;5178758;22;20051;-85
2023/06/07 13:56:44;;;;;;;0.70;0.70;;;;;;;;;;5178711;22;20095;-85
2023/06/07 13:59:04;;;;;;;1.05;0.85;;;;;;;;;;5209930;22;20026;-85
2023/06/07 14:01:24;;;;;;;2.47;0.80;;;;;;;;;;5187090;22;20035;-85
2023/06/07 14:03:45;;;;;;;0.73;0.73;;;;;;;;;;5187298;22;20027;-85
2023/06/07 14:06:06;;;;;;;2.00;0.80;;;;;;;;;;5201652;22;20050;-84
2023/06/07 14:08:26;;;;;;;9.27;0.98;;;;;;;;;;5178613;22;20231;-84